createdAt,value
2019-02-28T00:00:47.680Z,5.20
2019-02-28T00:03:20.244Z,5.10
2019-02-28T00:05:50.543Z,5.10
2019-02-28T00:08:21.177Z,5.10
2019-02-28T00:10:51.716Z,5.10
2019-02-28T00:13:22.508Z,5.10
2019-02-28T00:15:53.262Z,5.20
2019-02-28T00:18:23.871Z,5.30
2019-02-28T00:20:54.425Z,5.30
2019-02-28T00:23:24.971Z,5.30
2019-02-28T00:25:55.641Z,5.30
2019-02-28T00:28:26.598Z,5.30
2019-02-28T00:30:57.231Z,5.30
2019-02-28T00:33:30.844Z,5.30
2019-02-28T00:35:59.999Z,5.30
2019-02-28T00:38:30.644Z,5.30
2019-02-28T00:41:01.588Z,5.20
2019-02-28T00:43:33.035Z,5.20
2019-02-28T00:46:03.852Z,5.10
2019-02-28T00:48:34.411Z,5.00
2019-02-28T00:51:04.983Z,4.90
2019-02-28T00:53:37.428Z,4.80
2019-02-28T00:56:07.693Z,4.80
2019-02-28T00:58:38.307Z,4.70
2019-02-28T01:01:11.488Z,4.80
2019-02-28T01:03:41.200Z,4.80
2019-02-28T01:06:11.792Z,4.90
2019-02-28T01:08:42.398Z,4.90
2019-02-28T01:11:13.927Z,4.90
2019-02-28T01:13:44.667Z,4.90
2019-02-28T01:16:16.106Z,5.00
2019-02-28T01:18:48.071Z,5.10
2019-02-28T01:21:23.702Z,5.20
2019-02-28T01:23:51.104Z,5.20
2019-02-28T01:26:21.787Z,5.20
2019-02-28T01:28:52.659Z,5.10
2019-02-28T01:31:23.251Z,5.10
2019-02-28T01:33:56.025Z,5.00
2019-02-28T01:36:26.194Z,4.80
2019-02-28T01:38:57.946Z,4.80
2019-02-28T01:41:29.130Z,4.80
2019-02-28T01:44:01.696Z,4.80
2019-02-28T01:46:31.835Z,4.70
2019-02-28T01:49:02.404Z,4.80
2019-02-28T01:51:36.612Z,4.80
2019-02-28T01:54:05.878Z,4.90
2019-02-28T01:56:37.830Z,4.90
2019-02-28T01:59:08.630Z,4.90
2019-02-28T02:01:39.411Z,4.90
2019-02-28T02:04:12.512Z,5.00
2019-02-28T02:06:44.319Z,5.00
2019-02-28T02:09:15.389Z,5.00
2019-02-28T02:11:45.950Z,5.00
2019-02-28T02:14:16.486Z,5.00
2019-02-28T02:16:47.427Z,5.00
2019-02-28T02:19:18.815Z,5.00
2019-02-28T02:21:49.487Z,5.00
2019-02-28T02:24:20.042Z,5.00
2019-02-28T02:26:51.730Z,5.00
2019-02-28T02:29:22.474Z,4.90
2019-02-28T02:31:53.042Z,4.90
2019-02-28T02:34:24.314Z,4.90
2019-02-28T02:36:56.237Z,5.00
2019-02-28T02:39:26.873Z,5.00
2019-02-28T02:41:57.449Z,4.80
2019-02-28T02:44:31.833Z,4.80
2019-02-28T02:47:00.208Z,4.80
2019-02-28T02:49:30.823Z,4.90
2019-02-28T02:52:01.343Z,4.90
2019-02-28T02:54:31.962Z,4.90
2019-02-28T02:57:02.510Z,4.90
2019-02-28T02:59:37.326Z,4.90
2019-02-28T03:02:05.606Z,4.90
2019-02-28T03:04:36.750Z,5.00
2019-02-28T03:07:07.619Z,5.00
2019-02-28T03:09:43.347Z,4.90
2019-02-28T03:12:10.895Z,4.90
2019-02-28T03:14:41.505Z,4.90
2019-02-28T03:17:12.262Z,4.80
2019-02-28T03:19:44.467Z,4.70
2019-02-28T03:22:15.449Z,4.60
2019-02-28T03:24:50.456Z,4.60
2019-02-28T03:27:20.133Z,4.60
2019-02-28T03:29:50.938Z,4.70
2019-02-28T03:32:21.597Z,4.70
2019-02-28T03:34:58.116Z,4.80
2019-02-28T03:37:24.369Z,4.80
2019-02-28T03:40:02.721Z,4.70
2019-02-28T03:42:28.874Z,4.70
2019-02-28T03:44:59.327Z,4.70
2019-02-28T03:47:30.156Z,4.70
2019-02-28T03:50:01.081Z,4.70
2019-02-28T03:52:32.196Z,4.70
2019-02-28T03:55:04.510Z,4.70
2019-02-28T03:57:35.064Z,4.80
2019-02-28T04:00:10.257Z,4.80
2019-02-28T04:02:40.818Z,4.80
2019-02-28T04:05:11.452Z,4.80
2019-02-28T04:07:43.264Z,4.80
2019-02-28T04:10:16.705Z,4.80
2019-02-28T04:12:47.093Z,4.80
2019-02-28T04:15:17.903Z,4.80
2019-02-28T04:17:48.442Z,4.80
2019-02-28T04:20:19.209Z,4.80
2019-02-28T04:22:58.834Z,4.80
2019-02-28T04:25:24.695Z,4.80
2019-02-28T04:27:55.706Z,4.80
2019-02-28T04:30:26.296Z,4.80
2019-02-28T04:33:01.053Z,4.80
2019-02-28T04:35:29.015Z,4.80
2019-02-28T04:37:59.677Z,4.80
2019-02-28T04:40:30.203Z,4.80
2019-02-28T04:43:00.766Z,4.80
2019-02-28T04:45:31.319Z,4.80
2019-02-28T04:48:01.915Z,4.80
2019-02-28T04:50:32.435Z,4.70
2019-02-28T04:53:03.022Z,4.60
2019-02-28T04:55:34.210Z,4.70
2019-02-28T04:58:05.831Z,4.60
2019-02-28T05:00:37.834Z,4.60
2019-02-28T05:03:08.669Z,4.60
2019-02-28T05:05:39.221Z,4.50
2019-02-28T05:08:09.777Z,4.50
2019-02-28T05:10:40.341Z,4.50
2019-02-28T05:13:11.398Z,4.40
2019-02-28T05:15:48.116Z,4.40
2019-02-28T05:18:18.675Z,4.40
2019-02-28T05:20:49.214Z,4.30
2019-02-28T05:23:19.782Z,4.10
2019-02-28T05:25:51.994Z,4.00
2019-02-28T05:28:22.456Z,4.00
2019-02-28T05:30:53.763Z,4.00
2019-02-28T05:33:24.407Z,4.00
2019-02-28T05:35:57.217Z,4.00
2019-02-28T05:38:27.347Z,4.10
2019-02-28T05:40:57.862Z,4.10
2019-02-28T05:43:29.175Z,4.10
2019-02-28T05:46:00.581Z,4.00
2019-02-28T05:48:31.075Z,4.00
2019-02-28T05:51:01.603Z,4.00
2019-02-28T05:53:32.136Z,4.00
2019-02-28T05:56:02.699Z,4.00
2019-02-28T05:58:36.375Z,3.90
2019-02-28T06:01:11.991Z,3.90
2019-02-28T06:03:41.063Z,3.90
2019-02-28T06:06:11.608Z,3.90
2019-02-28T06:08:42.144Z,3.90
2019-02-28T06:11:12.709Z,3.90
2019-02-28T06:13:43.264Z,3.90
2019-02-28T06:16:13.870Z,3.90
2019-02-28T06:18:44.778Z,4.00
2019-02-28T06:21:15.381Z,4.00
2019-02-28T06:23:45.906Z,4.10
2019-02-28T06:26:16.460Z,4.10
2019-02-28T06:28:47.047Z,4.20
2019-02-28T06:31:17.552Z,4.30
2019-02-28T06:33:48.226Z,4.50
2019-02-28T06:36:18.815Z,4.70
2019-02-28T06:38:51.534Z,5.10
2019-02-28T06:41:21.611Z,5.50
2019-02-28T06:43:53.095Z,5.90
2019-02-28T06:46:24.564Z,6.30
2019-02-28T06:49:01.612Z,6.80
2019-02-28T06:51:27.681Z,7.40
2019-02-28T06:53:58.212Z,7.80
2019-02-28T06:56:30.789Z,8.10
2019-02-28T06:59:00.923Z,8.30
2019-02-28T07:01:31.465Z,8.50
2019-02-28T07:04:02.006Z,8.50
2019-02-28T07:06:35.624Z,8.50
2019-02-28T07:09:06.463Z,8.50
2019-02-28T07:11:37.023Z,8.50
2019-02-28T07:14:12.933Z,8.60
2019-02-28T07:16:39.717Z,8.80
2019-02-28T07:19:10.260Z,9.30
2019-02-28T07:21:43.917Z,9.80
2019-02-28T07:24:13.714Z,10.50
2019-02-28T07:26:44.622Z,11.00
2019-02-28T07:29:15.185Z,11.30
2019-02-28T07:31:45.726Z,11.40
2019-02-28T07:34:19.351Z,11.60
2019-02-28T07:36:48.478Z,11.70
2019-02-28T07:39:19.043Z,11.90
2019-02-28T07:41:49.563Z,12.30
2019-02-28T07:44:22.235Z,13.00
2019-02-28T07:46:52.263Z,13.80
2019-02-28T07:49:22.792Z,14.90
2019-02-28T07:51:56.827Z,15.80
2019-02-28T07:54:25.514Z,16.80
2019-02-28T07:56:56.063Z,17.50
2019-02-28T07:59:26.607Z,18.20
2019-02-28T08:01:59.976Z,19.00
2019-02-28T08:04:29.325Z,19.30
2019-02-28T08:06:59.855Z,19.70
2019-02-28T08:09:31.571Z,20.30
2019-02-28T08:12:02.223Z,20.80
2019-02-28T08:14:32.745Z,21.10
2019-02-28T08:17:05.429Z,21.60
2019-02-28T08:19:35.490Z,22.00
2019-02-28T08:22:06.042Z,22.50
2019-02-28T08:24:36.707Z,22.80
2019-02-28T08:27:10.643Z,23.10
2019-02-28T08:29:44.793Z,23.20
2019-02-28T08:32:13.368Z,23.20
2019-02-28T08:34:47.243Z,23.20
2019-02-28T08:37:19.037Z,23.20
2019-02-28T08:39:49.973Z,23.20
2019-02-28T08:42:20.500Z,23.20
2019-02-28T08:44:51.011Z,23.10
2019-02-28T08:47:21.883Z,22.80
2019-02-28T08:49:52.603Z,22.60
2019-02-28T08:52:23.143Z,22.50
2019-02-28T08:54:53.629Z,22.40
2019-02-28T08:57:25.659Z,22.30
2019-02-28T08:59:57.076Z,22.50
2019-02-28T09:02:27.812Z,22.70
2019-02-28T09:04:58.379Z,22.90
2019-02-28T09:07:28.900Z,23.00
2019-02-28T09:09:59.459Z,22.90
2019-02-28T09:12:33.294Z,23.20
2019-02-28T09:15:02.815Z,23.30
2019-02-28T09:17:33.827Z,23.40
2019-02-28T09:20:07.430Z,23.70
2019-02-28T09:22:36.907Z,23.90
2019-02-28T09:25:09.270Z,23.90
2019-02-28T09:27:39.811Z,24.10
2019-02-28T09:30:19.871Z,24.40
2019-02-28T09:32:50.372Z,24.40
2019-02-28T09:35:20.919Z,24.00
2019-02-28T09:37:54.330Z,23.70
2019-02-28T09:40:25.824Z,23.30
2019-02-28T09:42:57.000Z,22.70
2019-02-28T09:45:27.556Z,22.50
2019-02-28T09:48:00.939Z,22.20
2019-02-28T09:50:30.403Z,22.10
2019-02-28T09:53:00.960Z,22.00
2019-02-28T09:55:35.282Z,21.90
2019-02-28T09:58:03.636Z,21.80
2019-02-28T10:00:34.171Z,21.90
2019-02-28T10:03:06.779Z,22.20
2019-02-28T10:05:39.013Z,22.20
2019-02-28T10:08:09.399Z,22.00
2019-02-28T10:10:39.937Z,21.90
2019-02-28T10:13:10.475Z,21.80
2019-02-28T10:15:41.826Z,21.60
2019-02-28T10:18:12.936Z,21.60
2019-02-28T10:20:43.572Z,21.80
2019-02-28T10:23:14.110Z,22.30
2019-02-28T10:25:45.619Z,22.50
2019-02-28T10:28:16.167Z,22.80
2019-02-28T10:30:47.270Z,23.30
2019-02-28T10:33:18.848Z,23.70
2019-02-28T10:35:49.376Z,23.50
2019-02-28T10:38:20.562Z,23.20
2019-02-28T10:40:52.467Z,22.90
2019-02-28T10:43:23.220Z,22.30
2019-02-28T10:45:53.759Z,21.50
2019-02-28T10:48:24.266Z,21.00
2019-02-28T10:50:54.808Z,20.80
2019-02-28T10:53:25.335Z,20.30
2019-02-28T10:55:59.087Z,19.90
2019-02-28T10:58:29.618Z,19.00
2019-02-28T11:01:00.161Z,18.40
2019-02-28T11:03:32.434Z,17.90
2019-02-28T11:06:02.831Z,17.30
2019-02-28T11:08:33.352Z,16.90
2019-02-28T11:11:07.394Z,16.60
2019-02-28T11:13:36.523Z,16.30
2019-02-28T11:16:07.026Z,15.80
2019-02-28T11:18:37.583Z,15.80
2019-02-28T11:21:08.552Z,16.00
2019-02-28T11:23:39.099Z,15.60
2019-02-28T11:26:10.484Z,15.30
2019-02-28T11:28:41.068Z,15.10
2019-02-28T11:31:11.703Z,15.00
2019-02-28T11:33:42.265Z,14.80
2019-02-28T11:36:12.800Z,14.90
2019-02-28T11:38:43.405Z,15.00
2019-02-28T11:41:15.479Z,15.00
2019-02-28T11:43:46.248Z,15.20
2019-02-28T11:46:16.880Z,15.10
2019-02-28T11:48:47.499Z,15.10
2019-02-28T11:51:18.534Z,15.10
2019-02-28T11:53:49.058Z,15.20
2019-02-28T11:56:19.600Z,15.40
2019-02-28T11:58:51.758Z,15.90
2019-02-28T12:01:27.279Z,16.10
2019-02-28T12:03:57.847Z,16.30
2019-02-28T12:06:28.367Z,16.10
2019-02-28T12:08:59.271Z,16.00
2019-02-28T12:11:29.799Z,16.00
2019-02-28T12:14:00.309Z,16.00
2019-02-28T12:16:30.817Z,16.50
2019-02-28T12:19:02.605Z,16.70
2019-02-28T12:21:37.645Z,16.80
2019-02-28T12:24:05.519Z,16.90
2019-02-28T12:26:36.025Z,17.10
2019-02-28T12:29:09.400Z,17.00
2019-02-28T12:31:38.690Z,16.80
2019-02-28T12:34:09.229Z,16.40
2019-02-28T12:36:39.762Z,16.20
2019-02-28T12:39:10.440Z,15.80
2019-02-28T12:41:40.982Z,15.90
2019-02-28T12:44:12.454Z,16.30
2019-02-28T12:46:43.629Z,16.70
2019-02-28T12:49:14.204Z,16.90
2019-02-28T12:51:45.040Z,17.20
2019-02-28T12:54:15.572Z,17.30
2019-02-28T12:56:47.772Z,17.10
2019-02-28T12:59:18.428Z,17.30
2019-02-28T13:01:48.965Z,17.50
2019-02-28T13:04:19.550Z,17.50
2019-02-28T13:06:50.131Z,17.60
2019-02-28T13:09:20.670Z,17.50
2019-02-28T13:11:51.198Z,17.30
2019-02-28T13:14:21.726Z,17.20
2019-02-28T13:16:54.546Z,17.30
2019-02-28T13:19:24.735Z,17.30
2019-02-28T13:21:55.922Z,17.00
2019-02-28T13:24:26.427Z,17.00
2019-02-28T13:26:56.993Z,17.00
2019-02-28T13:29:28.818Z,16.90
2019-02-28T13:32:01.443Z,16.90
2019-02-28T13:34:31.850Z,17.00
2019-02-28T13:37:03.226Z,17.10
2019-02-28T13:39:33.856Z,17.20
2019-02-28T13:42:04.388Z,17.30
2019-02-28T13:44:36.321Z,17.40
2019-02-28T13:47:09.885Z,17.50
2019-02-28T13:49:39.226Z,17.30
2019-02-28T13:52:09.746Z,17.40
2019-02-28T13:54:42.122Z,17.40
2019-02-28T13:57:12.534Z,17.50
2019-02-28T13:59:43.028Z,17.50
2019-02-28T14:02:13.751Z,17.40
2019-02-28T14:04:44.764Z,17.10
2019-02-28T14:07:15.324Z,16.80
2019-02-28T14:09:45.851Z,16.40
2019-02-28T14:12:20.055Z,16.10
2019-02-28T14:14:49.116Z,15.90
2019-02-28T14:17:19.658Z,15.70
2019-02-28T14:19:52.685Z,15.60
2019-02-28T14:22:24.879Z,15.50
2019-02-28T14:24:57.679Z,15.30
2019-02-28T14:27:28.252Z,15.20
2019-02-28T14:29:58.785Z,15.00
2019-02-28T14:32:29.328Z,15.00
2019-02-28T14:34:59.988Z,15.00
2019-02-28T14:37:31.190Z,15.00
2019-02-28T14:40:01.717Z,14.90
2019-02-28T14:42:32.280Z,15.00
2019-02-28T14:45:03.956Z,14.90
2019-02-28T14:47:34.992Z,14.80
2019-02-28T14:50:06.410Z,14.70
2019-02-28T14:52:39.364Z,14.40
2019-02-28T14:55:12.512Z,14.20
2019-02-28T14:57:43.042Z,13.80
2019-02-28T15:00:16.017Z,13.50
2019-02-28T15:02:46.642Z,13.20
2019-02-28T15:05:20.481Z,13.00
2019-02-28T15:07:49.324Z,12.80
2019-02-28T15:10:20.264Z,12.50
2019-02-28T15:12:50.823Z,12.30
2019-02-28T15:15:21.459Z,12.10
2019-02-28T15:17:52.017Z,12.00
2019-02-28T15:20:22.591Z,12.10
2019-02-28T15:22:55.712Z,11.90
2019-02-28T15:25:25.410Z,11.80
2019-02-28T15:27:57.382Z,11.50
2019-02-28T15:30:33.881Z,11.40
2019-02-28T15:33:03.303Z,11.30
2019-02-28T15:35:33.829Z,11.10
2019-02-28T15:38:05.704Z,11.00
2019-02-28T15:40:37.510Z,10.90
2019-02-28T15:43:08.043Z,10.80
2019-02-28T15:45:39.531Z,10.70
2019-02-28T15:48:10.039Z,10.60
2019-02-28T15:50:40.552Z,10.40
2019-02-28T15:53:14.206Z,10.30
2019-02-28T15:55:43.239Z,10.10
2019-02-28T15:58:13.831Z,10.10
2019-02-28T16:00:44.455Z,10.00
2019-02-28T16:03:16.637Z,9.80
2019-02-28T16:05:47.164Z,9.80
2019-02-28T16:08:17.714Z,9.70
2019-02-28T16:10:53.222Z,9.60
2019-02-28T16:13:22.644Z,9.60
2019-02-28T16:15:53.959Z,9.40
2019-02-28T16:18:24.948Z,9.40
2019-02-28T16:20:55.505Z,9.30
2019-02-28T16:23:27.624Z,9.40
2019-02-28T16:25:58.582Z,9.30
2019-02-28T16:28:29.147Z,9.10
2019-02-28T16:30:59.663Z,8.90
2019-02-28T16:33:30.180Z,8.90
2019-02-28T16:36:00.792Z,8.90
2019-02-28T16:38:31.326Z,8.90
2019-02-28T16:41:01.884Z,8.80
2019-02-28T16:43:33.943Z,8.80
2019-02-28T16:46:04.627Z,8.80
2019-02-28T16:48:36.491Z,8.60
2019-02-28T16:51:07.288Z,8.60
2019-02-28T16:53:37.792Z,8.50
2019-02-28T16:56:08.337Z,8.50
2019-02-28T16:58:38.900Z,8.40
2019-02-28T17:01:09.631Z,8.40
2019-02-28T17:03:41.765Z,8.40
2019-02-28T17:06:12.842Z,8.30
2019-02-28T17:08:55.325Z,8.30
2019-02-28T17:11:25.929Z,8.20
2019-02-28T17:14:10.319Z,8.10
2019-02-28T17:17:03.417Z,8.10
2019-02-28T17:19:33.900Z,8.10
2019-02-28T17:22:04.468Z,8.10
2019-02-28T17:24:34.997Z,8.00
2019-02-28T17:27:33.327Z,8.00
2019-02-28T17:30:25.921Z,7.80
2019-02-28T17:32:56.556Z,7.70
2019-02-28T17:35:30.666Z,7.70
2019-02-28T17:38:00.967Z,7.70
2019-02-28T17:40:31.508Z,7.60
2019-02-28T17:43:02.047Z,7.50
2019-02-28T17:45:36.433Z,7.40
2019-02-28T17:48:41.888Z,7.40
2019-02-28T17:51:26.695Z,7.30
2019-02-28T17:54:40.212Z,7.30
2019-02-28T17:57:34.713Z,7.20
2019-02-28T18:00:58.419Z,7.20
2019-02-28T18:04:14.322Z,7.20
2019-02-28T18:07:25.778Z,7.20
2019-02-28T18:10:35.235Z,7.10
2019-02-28T18:13:45.043Z,7.10
2019-02-28T18:16:58.581Z,7.00
2019-02-28T18:20:18.336Z,6.90
2019-02-28T18:23:44.987Z,6.80
2019-02-28T18:26:56.824Z,6.70
2019-02-28T18:30:10.146Z,6.60
2019-02-28T18:32:40.638Z,6.50
2019-02-28T18:35:11.159Z,6.40
2019-02-28T18:37:49.429Z,6.30
2019-02-28T18:40:35.765Z,6.20
2019-02-28T18:43:06.419Z,6.10
2019-02-28T18:45:36.959Z,6.00
2019-02-28T18:48:07.619Z,5.90
2019-02-28T18:50:38.179Z,5.80
2019-02-28T18:53:08.726Z,5.80
2019-02-28T18:55:39.264Z,5.60
2019-02-28T18:58:09.785Z,5.50
2019-02-28T19:00:40.320Z,5.40
2019-02-28T19:03:12.789Z,5.30
2019-02-28T19:05:43.340Z,5.20
2019-02-28T19:08:13.892Z,5.10
2019-02-28T19:10:44.432Z,5.00
2019-02-28T19:13:15.398Z,4.90
2019-02-28T19:15:45.917Z,4.80
2019-02-28T19:18:16.491Z,4.70
2019-02-28T19:20:47.046Z,4.60
2019-02-28T19:23:17.540Z,4.50
2019-02-28T19:25:48.041Z,4.40
2019-02-28T19:28:18.629Z,4.40
2019-02-28T19:30:49.160Z,4.30
2019-02-28T19:33:19.695Z,4.20
2019-02-28T19:35:50.357Z,4.10
2019-02-28T19:38:20.920Z,4.00
2019-02-28T19:40:51.420Z,3.90
2019-02-28T19:43:22.318Z,3.90
2019-02-28T19:45:53.469Z,3.80
2019-02-28T19:48:24.115Z,3.70
2019-02-28T19:50:54.681Z,3.70
2019-02-28T19:53:25.726Z,3.60
2019-02-28T19:55:56.816Z,3.60
2019-02-28T19:58:27.787Z,3.50
2019-02-28T20:00:58.771Z,3.40
2019-02-28T20:03:29.325Z,3.40
2019-02-28T20:06:02.482Z,3.40
2019-02-28T20:08:33.020Z,3.30
2019-02-28T20:11:03.579Z,3.30
2019-02-28T20:13:34.216Z,3.20
2019-02-28T20:16:04.742Z,3.10
2019-02-28T20:18:35.252Z,3.00
2019-02-28T20:21:05.915Z,3.00
2019-02-28T20:23:36.443Z,3.00
2019-02-28T20:26:06.988Z,3.00
2019-02-28T20:28:37.632Z,2.90
2019-02-28T20:31:08.664Z,2.90
2019-02-28T20:33:39.284Z,2.80
2019-02-28T20:36:09.807Z,2.80
2019-02-28T20:38:40.392Z,2.70
2019-02-28T20:41:11.242Z,2.70
2019-02-28T20:43:41.830Z,2.60
2019-02-28T20:46:12.359Z,2.60
2019-02-28T20:48:43.559Z,2.60
2019-02-28T20:51:14.176Z,2.50
2019-02-28T20:53:44.707Z,2.50
2019-02-28T20:56:15.272Z,2.50
2019-02-28T20:58:45.839Z,2.50
2019-02-28T21:01:17.534Z,2.40
2019-02-28T21:03:48.240Z,2.40
2019-02-28T21:06:18.943Z,2.40
2019-02-28T21:08:49.484Z,2.40
2019-02-28T21:11:20.021Z,2.30
2019-02-28T21:13:50.566Z,2.30
2019-02-28T21:16:21.080Z,2.30
2019-02-28T21:18:51.613Z,2.20
2019-02-28T21:21:22.384Z,2.20
2019-02-28T21:23:52.902Z,2.20
2019-02-28T21:26:23.391Z,2.20
2019-02-28T21:28:53.965Z,2.10
2019-02-28T21:31:24.521Z,2.10
2019-02-28T21:33:55.119Z,2.10
2019-02-28T21:36:25.651Z,2.00
2019-02-28T21:38:56.162Z,2.00
2019-02-28T21:41:26.741Z,2.00
2019-02-28T21:43:57.273Z,2.00
2019-02-28T21:46:27.866Z,2.00
2019-02-28T21:48:58.748Z,1.90
2019-02-28T21:51:29.981Z,1.90
2019-02-28T21:54:00.498Z,1.90
2019-02-28T21:56:31.052Z,1.80
2019-02-28T21:59:01.595Z,1.80
2019-02-28T22:01:32.099Z,1.70
2019-02-28T22:04:02.639Z,1.70
2019-02-28T22:06:33.687Z,1.60
2019-02-28T22:09:05.213Z,1.60
2019-02-28T22:11:35.897Z,1.50
2019-02-28T22:14:06.472Z,1.50
2019-02-28T22:16:36.990Z,1.50
2019-02-28T22:19:07.513Z,1.50
2019-02-28T22:21:38.031Z,1.50
2019-02-28T22:24:08.586Z,1.50
2019-02-28T22:26:39.099Z,1.50
2019-02-28T22:29:09.615Z,1.40
2019-02-28T22:31:59.148Z,1.40
2019-02-28T22:34:38.584Z,1.40
2019-02-28T22:37:09.147Z,1.40
2019-02-28T22:39:39.675Z,1.40
2019-02-28T22:42:21.375Z,1.40
2019-02-28T22:44:42.550Z,1.30
2019-02-28T22:47:13.117Z,1.30
2019-02-28T22:49:43.702Z,1.30
2019-02-28T22:52:14.236Z,1.20
2019-02-28T22:54:44.780Z,1.20
2019-02-28T22:57:18.415Z,1.10
2019-02-28T22:59:48.995Z,1.10
2019-02-28T23:02:21.490Z,1.10
2019-02-28T23:04:52.064Z,1.10
2019-02-28T23:07:22.972Z,1.10
2019-02-28T23:09:53.572Z,1.00
2019-02-28T23:12:24.134Z,1.10
2019-02-28T23:14:54.678Z,1.00
2019-02-28T23:17:25.207Z,1.00
2019-02-28T23:19:55.779Z,0.90
2019-02-28T23:22:26.337Z,0.90
2019-02-28T23:24:56.918Z,0.80
2019-02-28T23:27:27.530Z,0.80
2019-02-28T23:30:19.236Z,0.70
2019-02-28T23:33:03.787Z,0.70
2019-02-28T23:35:37.200Z,0.60
2019-02-28T23:38:07.792Z,0.60
2019-02-28T23:40:38.376Z,0.50
2019-02-28T23:43:09.285Z,0.40
2019-02-28T23:45:39.818Z,0.30
2019-02-28T23:48:10.350Z,0.30
2019-02-28T23:50:41.287Z,0.30
2019-02-28T23:53:11.869Z,0.20
2019-02-28T23:55:42.476Z,0.20
2019-02-28T23:58:13.027Z,0.20
